Decoded Metar for LFOC (CHATEAUDUN in FRANCE) (IATA:N/A) | Meteo·Mobile Aviation Weather
aviador You're here:

LFOC Decoded Metar

CHATEAUDUN in FRANCE
Report Time2018-09-21 10:00:00
UTC Time2018-09-21 10:29:24
Flight Rules mvfr MVFR
Wind280° at 14 kt
W.Decomp.*RWY 28: 14.0 kt HW 0.2 kt RCW
W.Rank280° ranks 12
Current wind is above 280° avg. (7.9)
Visibility9999 m
Phenomena:N/A
Clouds:Broken 022 Hf
Broken 028 Hf
Broken 036 Hf
Expected CloudBase > 2,400 ft AGL from Temp-Dew spread
Ceiling2,200 ft
Temp16°C (ISA +2)
Dew Point10°C (68% RH)
AAT11.0°C
QNH1016 hPa
Density Alt699 ft
Elevation417 ft
Report Wrong Elevation
Raw Report
METAR LFOC 211000Z AUTO 28014KT 9999 BKN022 BKN028 BKN036 16/10 Q1016
TEMPO 28015G25KT=

Extra information for LFOC:More info

Metar Taf Metar & Taf Last 4 Metars F.Rules Stats Wind Profile Meteogram Temp Stats Airport Information Weather charts Add Link Nearby VenuesMetar ALERT Operation Metar Decoded Social comments